Carpio, North Dakota
Current Conditions -  °F | °C
As of 3:58 PM on Thursday 18 Dec 2014 (Local Time) from KMIB Reporting Station
Overcast Overcast  
Wind Chill: 15°   Ceiling: 1000
Heat Index: 22°   Visibility: 10mi
Dew Point: 22°   Wind: 6mph
Humidity: 98%   Direction: 160°SSE
Pressure: 29.99"   Gusts: NA
Location:  48.44°N, 101.71°W
Report Text: KMIB 182158Z AUTO 16005KT 10SM OVC010 M05/M06 A2999 RMK AO2 SLP192 T10541057 $
Loading
Personal Weather Stations






























Interactive Weather Map New forecast layout! Learn more

10-Day Weather Forecast

Advertisements
Track Severe Weather on mobile